Aviation Digital Data Service (ADDS)

Output produced by METARs form (0452 UTC 24 January 2019)
found at http://www.aviationweather.gov/metar/data/
 
METAR text: LKPR 240430Z 03004KT 7000 BKN021 OVC040 M06/M07 Q1005 R24/29//95 R30/410595 NOSIG
Conditions at: LKPR (PRAGUE/RUZYNE , CZ) observed 0430 UTC 24 January 2019
Temperature: -6.0°C (21°F)
Dewpoint: -7.0°C (19°F) [RH = 93%]
Pressure (altimeter): 29.68 inches Hg (1005.0 mb)
Winds: from the NNE (30 degrees) at 5 MPH (4 knots; 2.1 m/s)
Visibility: 4 miles ( 7 km)
Ceiling: 2100 feet AGL
Clouds: broken clouds at 2100 feet AGL
overcast cloud deck at 4000 feet AGL
Weather: no significant weather observed at this time

METAR text: LKPR 240400Z 03005KT 7000 BKN021 OVC040 M06/M07 Q1005 R24/29//95 R30/410595 NOSIG
Conditions at: LKPR (PRAGUE/RUZYNE , CZ) observed 0400 UTC 24 January 2019
Temperature: -6.0°C (21°F)
Dewpoint: -7.0°C (19°F) [RH = 93%]
Pressure (altimeter): 29.68 inches Hg (1005.0 mb)
Winds: from the NNE (30 degrees) at 6 MPH (5 knots; 2.6 m/s)
Visibility: 4 miles ( 7 km)
Ceiling: 2100 feet AGL
Clouds: broken clouds at 2100 feet AGL
overcast cloud deck at 4000 feet AGL
Weather: no significant weather observed at this time

METAR text: LKPR 240330Z 05005KT 7000 BKN021 OVC040 M06/M07 Q1004 R24/29//95 R30/410595 NOSIG
Conditions at: LKPR (PRAGUE/RUZYNE , CZ) observed 0330 UTC 24 January 2019
Temperature: -6.0°C (21°F)
Dewpoint: -7.0°C (19°F) [RH = 93%]
Pressure (altimeter): 29.65 inches Hg (1004.0 mb)
Winds: from the NE (50 degrees) at 6 MPH (5 knots; 2.6 m/s)
Visibility: 4 miles ( 7 km)
Ceiling: 2100 feet AGL
Clouds: broken clouds at 2100 feet AGL
overcast cloud deck at 4000 feet AGL
Weather: no significant weather observed at this time

METAR text: LKPR 240300Z 05006KT 7000 BKN021 OVC028 M06/M07 Q1004 R24/29//95 R30/410595 NOSIG
Conditions at: LKPR (PRAGUE/RUZYNE , CZ) observed 0300 UTC 24 January 2019
Temperature: -6.0°C (21°F)
Dewpoint: -7.0°C (19°F) [RH = 93%]
Pressure (altimeter): 29.65 inches Hg (1004.0 mb)
Winds: from the NE (50 degrees) at 7 MPH (6 knots; 3.1 m/s)
Visibility: 4 miles ( 7 km)
Ceiling: 2100 feet AGL
Clouds: broken clouds at 2100 feet AGL
overcast cloud deck at 2800 feet AGL
Weather: no significant weather observed at this time

METAR text: LKPR 240230Z 05006KT 7000 -SN FEW008 BKN021 OVC031 M06/M07 Q1004 R24/29//95 R30/410595 NOSIG
Conditions at: LKPR (PRAGUE/RUZYNE , CZ) observed 0230 UTC 24 January 2019
Temperature: -6.0°C (21°F)
Dewpoint: -7.0°C (19°F) [RH = 93%]
Pressure (altimeter): 29.65 inches Hg (1004.0 mb)
Winds: from the NE (50 degrees) at 7 MPH (6 knots; 3.1 m/s)
Visibility: 4 miles ( 7 km)
Ceiling: 2100 feet AGL
Clouds: few clouds at 800 feet AGL
broken clouds at 2100 feet AGL
overcast cloud deck at 3100 feet AGL
Weather: -SN  (light snow)

METAR text: LKPR 240200Z 04006KT 6000 -SN FEW008 OVC021 M06/M07 Q1004 R24/29//95 R30/410595 NOSIG
Conditions at: LKPR (PRAGUE/RUZYNE , CZ) observed 0200 UTC 24 January 2019
Temperature: -6.0°C (21°F)
Dewpoint: -7.0°C (19°F) [RH = 93%]
Pressure (altimeter): 29.65 inches Hg (1004.0 mb)
Winds: from the NE (40 degrees) at 7 MPH (6 knots; 3.1 m/s)
Visibility: 4 miles ( 6 km)
Ceiling: 2100 feet AGL
Clouds: few clouds at 800 feet AGL
overcast cloud deck at 2100 feet AGL
Weather: -SN  (light snow)

METAR text: LKPR 240130Z 04006KT 6000 -SN FEW008 OVC021 M06/M07 Q1004 R24/29//95 R30/410595 NOSIG
Conditions at: LKPR (PRAGUE/RUZYNE , CZ) observed 0130 UTC 24 January 2019
Temperature: -6.0°C (21°F)
Dewpoint: -7.0°C (19°F) [RH = 93%]
Pressure (altimeter): 29.65 inches Hg (1004.0 mb)
Winds: from the NE (40 degrees) at 7 MPH (6 knots; 3.1 m/s)
Visibility: 4 miles ( 6 km)
Ceiling: 2100 feet AGL
Clouds: few clouds at 800 feet AGL
overcast cloud deck at 2100 feet AGL
Weather: -SN  (light snow)

METAR text: LKPR 240100Z 03006KT 7000 -SN OVC021 M06/M08 Q1004 R24/29//95 R30/410595 NOSIG
Conditions at: LKPR (PRAGUE/RUZYNE , CZ) observed 0100 UTC 24 January 2019
Temperature: -6.0°C (21°F)
Dewpoint: -8.0°C (18°F) [RH = 86%]
Pressure (altimeter): 29.65 inches Hg (1004.0 mb)
Winds: from the NNE (30 degrees) at 7 MPH (6 knots; 3.1 m/s)
Visibility: 4 miles ( 7 km)
Ceiling: 2100 feet AGL
Clouds: overcast cloud deck at 2100 feet AGL
Weather: -SN  (light snow)

METAR text: LKPR 240030Z 05007KT 8000 -SN OVC021 M06/M08 Q1003 R24/29//95 R30/410595 NOSIG
Conditions at: LKPR (PRAGUE/RUZYNE , CZ) observed 0030 UTC 24 January 2019
Temperature: -6.0°C (21°F)
Dewpoint: -8.0°C (18°F) [RH = 86%]
Pressure (altimeter): 29.62 inches Hg (1003.0 mb)
Winds: from the NE (50 degrees) at 8 MPH (7 knots; 3.6 m/s)
Visibility: 5 miles ( 8 km)
Ceiling: 2100 feet AGL
Clouds: overcast cloud deck at 2100 feet AGL
Weather: -SN  (light snow)

METAR text: LKPR 240006Z 07008KT 8000 OVC021 M05/M08 Q1003 R24/29//95 R30/410595 RMK REG QNH 0999
Conditions at: LKPR (PRAGUE/RUZYNE , CZ) observed 0006 UTC 24 January 2019
Temperature: -5.0°C (23°F)
Dewpoint: -8.0°C (18°F) [RH = 79%]
Pressure (altimeter): 29.62 inches Hg (1003.0 mb)
Winds: from the ENE (70 degrees) at 9 MPH (8 knots; 4.1 m/s)
Visibility: 5 miles ( 8 km)
Ceiling: 2100 feet AGL
Clouds: overcast cloud deck at 2100 feet AGL
Weather: no significant weather observed at this time

METAR text: LKPR 240000Z 07009KT 8000 -SN OVC021 M05/M08 Q1003 R24/29//95 R30/410595 NOSIG
Conditions at: LKPR (PRAGUE/RUZYNE , CZ) observed 0000 UTC 24 January 2019
Temperature: -5.0°C (23°F)
Dewpoint: -8.0°C (18°F) [RH = 79%]
Pressure (altimeter): 29.62 inches Hg (1003.0 mb)
Winds: from the ENE (70 degrees) at 10 MPH (9 knots; 4.6 m/s)
Visibility: 5 miles ( 8 km)
Ceiling: 2100 feet AGL
Clouds: overcast cloud deck at 2100 feet AGL
Weather: -SN  (light snow)

METAR text: LKPR 232330Z 07009KT 8000 -SN OVC022 M06/M08 Q1003 R24/29//95 R30/410595 NOSIG
Conditions at: LKPR (PRAGUE/RUZYNE , CZ) observed 2330 UTC 23 January 2019
Temperature: -6.0°C (21°F)
Dewpoint: -8.0°C (18°F) [RH = 86%]
Pressure (altimeter): 29.62 inches Hg (1003.0 mb)
Winds: from the ENE (70 degrees) at 10 MPH (9 knots; 4.6 m/s)
Visibility: 5 miles ( 8 km)
Ceiling: 2200 feet AGL
Clouds: overcast cloud deck at 2200 feet AGL
Weather: -SN  (light snow)

METAR text: LKPR 232300Z 09008KT 8000 -SN OVC022 M06/M08 Q1003 R24/29//95 R30/410595 NOSIG
Conditions at: LKPR (PRAGUE/RUZYNE , CZ) observed 2300 UTC 23 January 2019
Temperature: -6.0°C (21°F)
Dewpoint: -8.0°C (18°F) [RH = 86%]
Pressure (altimeter): 29.62 inches Hg (1003.0 mb)
Winds: from the E (90 degrees) at 9 MPH (8 knots; 4.1 m/s)
Visibility: 5 miles ( 8 km)
Ceiling: 2200 feet AGL
Clouds: overcast cloud deck at 2200 feet AGL
Weather: -SN  (light snow)

METAR text: LKPR 232230Z 09011KT 8000 OVC023 M06/M08 Q1003 R24/29//95 R30/410595 NOSIG
Conditions at: LKPR (PRAGUE/RUZYNE , CZ) observed 2230 UTC 23 January 2019
Temperature: -6.0°C (21°F)
Dewpoint: -8.0°C (18°F) [RH = 86%]
Pressure (altimeter): 29.62 inches Hg (1003.0 mb)
Winds: from the E (90 degrees) at 13 MPH (11 knots; 5.7 m/s)
Visibility: 5 miles ( 8 km)
Ceiling: 2300 feet AGL
Clouds: overcast cloud deck at 2300 feet AGL
Weather: no significant weather observed at this time

METAR text: LKPR 232217Z 09009KT 8000 BKN023 OVC027 M06/M08 Q1002 R24/29//95// R30/410595 RMK REG QNH 0997
Conditions at: LKPR (PRAGUE/RUZYNE , CZ) observed 2217 UTC 23 January 2019
Temperature: -6.0°C (21°F)
Dewpoint: -8.0°C (18°F) [RH = 86%]
Pressure (altimeter): 29.59 inches Hg (1002.0 mb)
Winds: from the E (90 degrees) at 10 MPH (9 knots; 4.6 m/s)
Visibility: 5 miles ( 8 km)
Ceiling: 2300 feet AGL
Clouds: broken clouds at 2300 feet AGL
overcast cloud deck at 2700 feet AGL
Weather: no significant weather observed at this time

METAR text: LKPR 232200Z 09011KT 7000 OVC023 M06/M08 Q1002 R24/520195 R30/450594 NOSIG
Conditions at: LKPR (PRAGUE/RUZYNE , CZ) observed 2200 UTC 23 January 2019
Temperature: -6.0°C (21°F)
Dewpoint: -8.0°C (18°F) [RH = 86%]
Pressure (altimeter): 29.59 inches Hg (1002.0 mb)
Winds: from the E (90 degrees) at 13 MPH (11 knots; 5.7 m/s)
Visibility: 4 miles ( 7 km)
Ceiling: 2300 feet AGL
Clouds: overcast cloud deck at 2300 feet AGL
Weather: no significant weather observed at this time

METAR text: LKPR 232133Z 09010KT 7000 OVC022 M06/M08 Q1002 R24/520195 R30/450594 RMK REG QNH 0997
Conditions at: LKPR (PRAGUE/RUZYNE , CZ) observed 2133 UTC 23 January 2019
Temperature: -6.0°C (21°F)
Dewpoint: -8.0°C (18°F) [RH = 86%]
Pressure (altimeter): 29.59 inches Hg (1002.0 mb)
Winds: from the E (90 degrees) at 12 MPH (10 knots; 5.1 m/s)
Visibility: 4 miles ( 7 km)
Ceiling: 2200 feet AGL
Clouds: overcast cloud deck at 2200 feet AGL
Weather: no significant weather observed at this time

METAR text: LKPR 232130Z 09011KT 7000 -SN OVC022 M06/M08 Q1002 R24/520195 R30/450594 NOSIG
Conditions at: LKPR (PRAGUE/RUZYNE , CZ) observed 2130 UTC 23 January 2019
Temperature: -6.0°C (21°F)
Dewpoint: -8.0°C (18°F) [RH = 86%]
Pressure (altimeter): 29.59 inches Hg (1002.0 mb)
Winds: from the E (90 degrees) at 13 MPH (11 knots; 5.7 m/s)
Visibility: 4 miles ( 7 km)
Ceiling: 2200 feet AGL
Clouds: overcast cloud deck at 2200 feet AGL
Weather: -SN  (light snow)

METAR text: LKPR 232100Z 09012KT 6000 -SN BKN022 OVC028 M06/M08 Q1002 R24/520195 R30/450594 NOSIG
Conditions at: LKPR (PRAGUE/RUZYNE , CZ) observed 2100 UTC 23 January 2019
Temperature: -6.0°C (21°F)
Dewpoint: -8.0°C (18°F) [RH = 86%]
Pressure (altimeter): 29.59 inches Hg (1002.0 mb)
Winds: from the E (90 degrees) at 14 MPH (12 knots; 6.2 m/s)
Visibility: 4 miles ( 6 km)
Ceiling: 2200 feet AGL
Clouds: broken clouds at 2200 feet AGL
overcast cloud deck at 2800 feet AGL
Weather: -SN  (light snow)

METAR text: LKPR 232030Z 09009KT 5000 -SN BR FEW008 BKN033 M06/M08 Q1002 R24/520195 R30/450594 NOSIG
Conditions at: LKPR (PRAGUE/RUZYNE , CZ) observed 2030 UTC 23 January 2019
Temperature: -6.0°C (21°F)
Dewpoint: -8.0°C (18°F) [RH = 86%]
Pressure (altimeter): 29.59 inches Hg (1002.0 mb)
Winds: from the E (90 degrees) at 10 MPH (9 knots; 4.6 m/s)
Visibility: 3 miles ( 5 km)
Ceiling: 3300 feet AGL
Clouds: few clouds at 800 feet AGL
broken clouds at 3300 feet AGL
Weather: -SN BR  (light snow, mist)

METAR text: LKPR 232008Z 09010KT 5000 -SN BR FEW008 SCT025 BKN038 M06/M08 Q1002 R24/520195 R30/450594 RMK REG QNH 0996
Conditions at: LKPR (PRAGUE/RUZYNE , CZ) observed 2008 UTC 23 January 2019
Temperature: -6.0°C (21°F)
Dewpoint: -8.0°C (18°F) [RH = 86%]
Pressure (altimeter): 29.59 inches Hg (1002.0 mb)
Winds: from the E (90 degrees) at 12 MPH (10 knots; 5.1 m/s)
Visibility: 3 miles ( 5 km)
Ceiling: 3800 feet AGL
Clouds: few clouds at 800 feet AGL
scattered clouds at 2500 feet AGL
broken clouds at 3800 feet AGL
Weather: -SN BR  (light snow, mist)

METAR text: LKPR 232001Z 09009KT 4500 -SN BR FEW008 BKN040 M06/M08 Q1002 R24/520195 R30/450594 RMK REG QNH 0996
Conditions at: LKPR (PRAGUE/RUZYNE , CZ) observed 2001 UTC 23 January 2019
Temperature: -6.0°C (21°F)
Dewpoint: -8.0°C (18°F) [RH = 86%]
Pressure (altimeter): 29.59 inches Hg (1002.0 mb)
Winds: from the E (90 degrees) at 10 MPH (9 knots; 4.6 m/s)
Visibility: 2.80 miles (4.51 km)
Ceiling: 4000 feet AGL
Clouds: few clouds at 800 feet AGL
broken clouds at 4000 feet AGL
Weather: -SN BR  (light snow, mist)

METAR text: LKPR 232000Z 09010KT 5000 -SN BR FEW008 BKN040 M06/M08 Q1002 R24/520195 R30/450195 NOSIG
Conditions at: LKPR (PRAGUE/RUZYNE , CZ) observed 2000 UTC 23 January 2019
Temperature: -6.0°C (21°F)
Dewpoint: -8.0°C (18°F) [RH = 86%]
Pressure (altimeter): 29.59 inches Hg (1002.0 mb)
Winds: from the E (90 degrees) at 12 MPH (10 knots; 5.1 m/s)
Visibility: 3 miles ( 5 km)
Ceiling: 4000 feet AGL
Clouds: few clouds at 800 feet AGL
broken clouds at 4000 feet AGL
Weather: -SN BR  (light snow, mist)

METAR text: LKPR 231939Z 09010KT 5000 -SN BR SCT030 BKN045 M07/M08 Q1001 R24/520195 R30/450195 RMK REG QNH 0996
Conditions at: LKPR (PRAGUE/RUZYNE , CZ) observed 1939 UTC 23 January 2019
Temperature: -7.0°C (19°F)
Dewpoint: -8.0°C (18°F) [RH = 93%]
Pressure (altimeter): 29.56 inches Hg (1001.0 mb)
Winds: from the E (90 degrees) at 12 MPH (10 knots; 5.1 m/s)
Visibility: 3 miles ( 5 km)
Ceiling: 4500 feet AGL
Clouds: scattered clouds at 3000 feet AGL
broken clouds at 4500 feet AGL
Weather: -SN BR  (light snow, mist)

METAR text: LKPR 231930Z 09011KT 4000 -SN BR BKN030 M07/M08 Q1001 R24/520195 R30/450195 NOSIG
Conditions at: LKPR (PRAGUE/RUZYNE , CZ) observed 1930 UTC 23 January 2019
Temperature: -7.0°C (19°F)
Dewpoint: -8.0°C (18°F) [RH = 93%]
Pressure (altimeter): 29.56 inches Hg (1001.0 mb)
Winds: from the E (90 degrees) at 13 MPH (11 knots; 5.7 m/s)
Visibility: 2.49 miles (4.01 km)
Ceiling: 3000 feet AGL
Clouds: broken clouds at 3000 feet AGL
Weather: -SN BR  (light snow, mist)

METAR text: LKPR 231912Z 09013KT 4500 -SN BR SCT030 M07/M08 Q1001 R24/520195 R30/450195 RMK REG QNH 0996
Conditions at: LKPR (PRAGUE/RUZYNE , CZ) observed 1912 UTC 23 January 2019
Temperature: -7.0°C (19°F)
Dewpoint: -8.0°C (18°F) [RH = 93%]
Pressure (altimeter): 29.56 inches Hg (1001.0 mb)
Winds: from the E (90 degrees) at 15 MPH (13 knots; 6.7 m/s)
Visibility: 2.80 miles (4.51 km)
Ceiling: at least 12,000 feet AGL
Clouds: scattered clouds at 3000 feet AGL
Weather: -SN BR  (light snow, mist)

METAR text: LKPR 231900Z 09014KT 6000 -SN FEW030 M07/M09 Q1001 R24/520195 R30/450195 TEMPO 3000 SN BKN014
Conditions at: LKPR (PRAGUE/RUZYNE , CZ) observed 1900 UTC 23 January 2019
Temperature: -7.0°C (19°F)
Dewpoint: -9.0°C (16°F) [RH = 86%]
Pressure (altimeter): 29.56 inches Hg (1001.0 mb)
Winds: from the E (90 degrees) at 16 MPH (14 knots; 7.2 m/s)
Visibility: 4 miles ( 6 km)
Ceiling: at least 12,000 feet AGL
Clouds: few clouds at 3000 feet AGL
Weather: -SN  (light snow)

METAR text: LKPR 231841Z 09014KT 6000 -SN FEW030 M06/M08 Q1001 R24/520195 R30/450195 RMK REG QNH 0996
Conditions at: LKPR (PRAGUE/RUZYNE , CZ) observed 1841 UTC 23 January 2019
Temperature: -6.0°C (21°F)
Dewpoint: -8.0°C (18°F) [RH = 86%]
Pressure (altimeter): 29.56 inches Hg (1001.0 mb)
Winds: from the E (90 degrees) at 16 MPH (14 knots; 7.2 m/s)
Visibility: 4 miles ( 6 km)
Ceiling: at least 12,000 feet AGL
Clouds: few clouds at 3000 feet AGL
Weather: -SN  (light snow)

METAR text: LKPR 231830Z 09014KT 6000 -SN SCT030 M06/M09 Q1001 TEMPO 3000 SN BKN014
Conditions at: LKPR (PRAGUE/RUZYNE , CZ) observed 1830 UTC 23 January 2019
Temperature: -6.0°C (21°F)
Dewpoint: -9.0°C (16°F) [RH = 79%]
Pressure (altimeter): 29.56 inches Hg (1001.0 mb)
Winds: from the E (90 degrees) at 16 MPH (14 knots; 7.2 m/s)
Visibility: 4 miles ( 6 km)
Ceiling: at least 12,000 feet AGL
Clouds: scattered clouds at 3000 feet AGL
Weather: -SN  (light snow)

METAR text: LKPR 231800Z 08015KT 5000 -SN BR SCT030 M06/M09 Q1001 NOSIG
Conditions at: LKPR (PRAGUE/RUZYNE , CZ) observed 1800 UTC 23 January 2019
Temperature: -6.0°C (21°F)
Dewpoint: -9.0°C (16°F) [RH = 79%]
Pressure (altimeter): 29.56 inches Hg (1001.0 mb)
Winds: from the E (80 degrees) at 17 MPH (15 knots; 7.7 m/s)
Visibility: 3 miles ( 5 km)
Ceiling: at least 12,000 feet AGL
Clouds: scattered clouds at 3000 feet AGL
Weather: -SN BR  (light snow, mist)

METAR text: LKPR 231750Z 09014KT 6000 -SN BKN030 M06/M09 Q1001 RMK REG QNH 0995
Conditions at: LKPR (PRAGUE/RUZYNE , CZ) observed 1750 UTC 23 January 2019
Temperature: -6.0°C (21°F)
Dewpoint: -9.0°C (16°F) [RH = 79%]
Pressure (altimeter): 29.56 inches Hg (1001.0 mb)
Winds: from the E (90 degrees) at 16 MPH (14 knots; 7.2 m/s)
Visibility: 4 miles ( 6 km)
Ceiling: 3000 feet AGL
Clouds: broken clouds at 3000 feet AGL
Weather: -SN  (light snow)

METAR text: LKPR 231730Z 08013KT 8000 BKN046 M06/M09 Q1000 NOSIG
Conditions at: LKPR (PRAGUE/RUZYNE , CZ) observed 1730 UTC 23 January 2019
Temperature: -6.0°C (21°F)
Dewpoint: -9.0°C (16°F) [RH = 79%]
Pressure (altimeter): 29.53 inches Hg (1000.0 mb)
Winds: from the E (80 degrees) at 15 MPH (13 knots; 6.7 m/s)
Visibility: 5 miles ( 8 km)
Ceiling: 4600 feet AGL
Clouds: broken clouds at 4600 feet AGL
Weather: no significant weather observed at this time

METAR text: LKPR 231700Z 09011KT 8000 NSC M06/M09 Q1000 NOSIG
Conditions at: LKPR (PRAGUE/RUZYNE , CZ) observed 1700 UTC 23 January 2019
Temperature: -6.0°C (21°F)
Dewpoint: -9.0°C (16°F) [RH = 79%]
Pressure (altimeter): 29.53 inches Hg (1000.0 mb)
Winds: from the E (90 degrees) at 13 MPH (11 knots; 5.7 m/s)
Visibility: 5 miles ( 8 km)
Ceiling: at least 12,000 feet AGL
Clouds: sky clear below 12,000 feet AGL
Weather: no significant weather observed at this time

METAR text: LKPR 231630Z 08013KT 8000 NSC M05/M09 Q1000 NOSIG
Conditions at: LKPR (PRAGUE/RUZYNE , CZ) observed 1630 UTC 23 January 2019
Temperature: -5.0°C (23°F)
Dewpoint: -9.0°C (16°F) [RH = 73%]
Pressure (altimeter): 29.53 inches Hg (1000.0 mb)
Winds: from the E (80 degrees) at 15 MPH (13 knots; 6.7 m/s)
Visibility: 5 miles ( 8 km)
Ceiling: at least 12,000 feet AGL
Clouds: sky clear below 12,000 feet AGL
Weather: no significant weather observed at this time

METAR text: LKPR 231600Z 06009KT 7000 NSC M05/M09 Q1000 NOSIG
Conditions at: LKPR (PRAGUE/RUZYNE , CZ) observed 1600 UTC 23 January 2019
Temperature: -5.0°C (23°F)
Dewpoint: -9.0°C (16°F) [RH = 73%]
Pressure (altimeter): 29.53 inches Hg (1000.0 mb)
Winds: from the ENE (60 degrees) at 10 MPH (9 knots; 4.6 m/s)
Visibility: 4 miles ( 7 km)
Ceiling: at least 12,000 feet AGL
Clouds: sky clear below 12,000 feet AGL
Weather: no significant weather observed at this time

METAR text: LKPR 231530Z 06008KT 7000 NSC M05/M08 Q1000 NOSIG
Conditions at: LKPR (PRAGUE/RUZYNE , CZ) observed 1530 UTC 23 January 2019
Temperature: -5.0°C (23°F)
Dewpoint: -8.0°C (18°F) [RH = 79%]
Pressure (altimeter): 29.53 inches Hg (1000.0 mb)
Winds: from the ENE (60 degrees) at 9 MPH (8 knots; 4.1 m/s)
Visibility: 4 miles ( 7 km)
Ceiling: at least 12,000 feet AGL
Clouds: sky clear below 12,000 feet AGL
Weather: no significant weather observed at this time

METAR text: LKPR 231500Z 06007KT 7000 NSC M05/M08 Q0999 NOSIG
Conditions at: LKPR (PRAGUE/RUZYNE , CZ) observed 1500 UTC 23 January 2019
Temperature: -5.0°C (23°F)
Dewpoint: -8.0°C (18°F) [RH = 79%]
Pressure (altimeter): 29.50 inches Hg (999.0 mb)
Winds: from the ENE (60 degrees) at 8 MPH (7 knots; 3.6 m/s)
Visibility: 4 miles ( 7 km)
Ceiling: at least 12,000 feet AGL
Clouds: sky clear below 12,000 feet AGL
Weather: no significant weather observed at this time

METAR text: LKPR 231430Z 05008KT 7000 NSC M05/M08 Q0999 NOSIG
Conditions at: LKPR (PRAGUE/RUZYNE , CZ) observed 1430 UTC 23 January 2019
Temperature: -5.0°C (23°F)
Dewpoint: -8.0°C (18°F) [RH = 79%]
Pressure (altimeter): 29.50 inches Hg (999.0 mb)
Winds: from the NE (50 degrees) at 9 MPH (8 knots; 4.1 m/s)
Visibility: 4 miles ( 7 km)
Ceiling: at least 12,000 feet AGL
Clouds: sky clear below 12,000 feet AGL
Weather: no significant weather observed at this time

METAR text: LKPR 231400Z 05008KT 7000 FEW010 M05/M08 Q0999 NOSIG
Conditions at: LKPR (PRAGUE/RUZYNE , CZ) observed 1400 UTC 23 January 2019
Temperature: -5.0°C (23°F)
Dewpoint: -8.0°C (18°F) [RH = 79%]
Pressure (altimeter): 29.50 inches Hg (999.0 mb)
Winds: from the NE (50 degrees) at 9 MPH (8 knots; 4.1 m/s)
Visibility: 4 miles ( 7 km)
Ceiling: at least 12,000 feet AGL
Clouds: few clouds at 1000 feet AGL
Weather: no significant weather observed at this time

METAR text: LKPR 231330Z 05009KT 6000 FEW010 M04/M08 Q0999 NOSIG
Conditions at: LKPR (PRAGUE/RUZYNE , CZ) observed 1330 UTC 23 January 2019
Temperature: -4.0°C (25°F)
Dewpoint: -8.0°C (18°F) [RH = 74%]
Pressure (altimeter): 29.50 inches Hg (999.0 mb)
Winds: from the NE (50 degrees) at 10 MPH (9 knots; 4.6 m/s)
Visibility: 4 miles ( 6 km)
Ceiling: at least 12,000 feet AGL
Clouds: few clouds at 1000 feet AGL
Weather: no significant weather observed at this time

METAR text: LKPR 231300Z 04009KT 6000 FEW010 M05/M08 Q0999 NOSIG
Conditions at: LKPR (PRAGUE/RUZYNE , CZ) observed 1300 UTC 23 January 2019
Temperature: -5.0°C (23°F)
Dewpoint: -8.0°C (18°F) [RH = 79%]
Pressure (altimeter): 29.50 inches Hg (999.0 mb)
Winds: from the NE (40 degrees) at 10 MPH (9 knots; 4.6 m/s)
Visibility: 4 miles ( 6 km)
Ceiling: at least 12,000 feet AGL
Clouds: few clouds at 1000 feet AGL
Weather: no significant weather observed at this time

METAR text: LKPR 231230Z 04008KT 5000 BR FEW010 M05/M08 Q0999 NOSIG
Conditions at: LKPR (PRAGUE/RUZYNE , CZ) observed 1230 UTC 23 January 2019
Temperature: -5.0°C (23°F)
Dewpoint: -8.0°C (18°F) [RH = 79%]
Pressure (altimeter): 29.50 inches Hg (999.0 mb)
Winds: from the NE (40 degrees) at 9 MPH (8 knots; 4.1 m/s)
Visibility: 3 miles ( 5 km)
Ceiling: at least 12,000 feet AGL
Clouds: few clouds at 1000 feet AGL
Weather: BR  (mist)

METAR text: LKPR 231200Z 04007KT 010V070 5000 BR SCT010 M05/M08 Q1000 NOSIG
Conditions at: LKPR (PRAGUE/RUZYNE , CZ) observed 1200 UTC 23 January 2019
Temperature: -5.0°C (23°F)
Dewpoint: -8.0°C (18°F) [RH = 79%]
Pressure (altimeter): 29.53 inches Hg (1000.0 mb)
Winds: from the NE (40 degrees) at 8 MPH (7 knots; 3.6 m/s)
Visibility: 3 miles ( 5 km)
Ceiling: at least 12,000 feet AGL
Clouds: scattered clouds at 1000 feet AGL
Weather: BR  (mist)

METAR text: LKPR 231130Z 04008KT 5000 BR SCT010 M05/M08 Q1000 NOSIG
Conditions at: LKPR (PRAGUE/RUZYNE , CZ) observed 1130 UTC 23 January 2019
Temperature: -5.0°C (23°F)
Dewpoint: -8.0°C (18°F) [RH = 79%]
Pressure (altimeter): 29.53 inches Hg (1000.0 mb)
Winds: from the NE (40 degrees) at 9 MPH (8 knots; 4.1 m/s)
Visibility: 3 miles ( 5 km)
Ceiling: at least 12,000 feet AGL
Clouds: scattered clouds at 1000 feet AGL
Weather: BR  (mist)

METAR text: LKPR 231100Z 06006KT 5000 BR SCT009 M05/M08 Q1000 NOSIG
Conditions at: LKPR (PRAGUE/RUZYNE , CZ) observed 1100 UTC 23 January 2019
Temperature: -5.0°C (23°F)
Dewpoint: -8.0°C (18°F) [RH = 79%]
Pressure (altimeter): 29.53 inches Hg (1000.0 mb)
Winds: from the ENE (60 degrees) at 7 MPH (6 knots; 3.1 m/s)
Visibility: 3 miles ( 5 km)
Ceiling: at least 12,000 feet AGL
Clouds: scattered clouds at 900 feet AGL
Weather: BR  (mist)

METAR text: LKPR 231030Z 05005KT 5000 BR SCT009 M06/M08 Q1000 NOSIG
Conditions at: LKPR (PRAGUE/RUZYNE , CZ) observed 1030 UTC 23 January 2019
Temperature: -6.0°C (21°F)
Dewpoint: -8.0°C (18°F) [RH = 86%]
Pressure (altimeter): 29.53 inches Hg (1000.0 mb)
Winds: from the NE (50 degrees) at 6 MPH (5 knots; 2.6 m/s)
Visibility: 3 miles ( 5 km)
Ceiling: at least 12,000 feet AGL
Clouds: scattered clouds at 900 feet AGL
Weather: BR  (mist)

METAR text: LKPR 231000Z 06005KT 030V090 5000 BR FEW008 M06/M08 Q1001 NOSIG
Conditions at: LKPR (PRAGUE/RUZYNE , CZ) observed 1000 UTC 23 January 2019
Temperature: -6.0°C (21°F)
Dewpoint: -8.0°C (18°F) [RH = 86%]
Pressure (altimeter): 29.56 inches Hg (1001.0 mb)
Winds: from the ENE (60 degrees) at 6 MPH (5 knots; 2.6 m/s)
Visibility: 3 miles ( 5 km)
Ceiling: at least 12,000 feet AGL
Clouds: few clouds at 800 feet AGL
Weather: BR  (mist)

METAR text: LKPR 230930Z 05005KT 010V100 5000 BR SCT009 M06/M08 Q1001 NOSIG
Conditions at: LKPR (PRAGUE/RUZYNE , CZ) observed 0930 UTC 23 January 2019
Temperature: -6.0°C (21°F)
Dewpoint: -8.0°C (18°F) [RH = 86%]
Pressure (altimeter): 29.56 inches Hg (1001.0 mb)
Winds: from the NE (50 degrees) at 6 MPH (5 knots; 2.6 m/s)
Visibility: 3 miles ( 5 km)
Ceiling: at least 12,000 feet AGL
Clouds: scattered clouds at 900 feet AGL
Weather: BR  (mist)

METAR text: LKPR 230905Z 07005KT 030V100 6000 SCT010 M07/M09 Q1001 RMK REG QNH 0995
Conditions at: LKPR (PRAGUE/RUZYNE , CZ) observed 0905 UTC 23 January 2019
Temperature: -7.0°C (19°F)
Dewpoint: -9.0°C (16°F) [RH = 86%]
Pressure (altimeter): 29.56 inches Hg (1001.0 mb)
Winds: from the ENE (70 degrees) at 6 MPH (5 knots; 2.6 m/s)
Visibility: 4 miles ( 6 km)
Ceiling: at least 12,000 feet AGL
Clouds: scattered clouds at 1000 feet AGL
Weather: no significant weather observed at this time

METAR text: LKPR 230900Z 08004KT 6000 BKN010 M07/M09 Q1001 TEMPO SCT010
Conditions at: LKPR (PRAGUE/RUZYNE , CZ) observed 0900 UTC 23 January 2019
Temperature: -7.0°C (19°F)
Dewpoint: -9.0°C (16°F) [RH = 86%]
Pressure (altimeter): 29.56 inches Hg (1001.0 mb)
Winds: from the E (80 degrees) at 5 MPH (4 knots; 2.1 m/s)
Visibility: 4 miles ( 6 km)
Ceiling: 1000 feet AGL
Clouds: broken clouds at 1000 feet AGL
Weather: no significant weather observed at this time

METAR text: LKPR 230830Z 11004KT 080V140 6000 FEW009 BKN011 M07/M09 Q1001 NOSIG
Conditions at: LKPR (PRAGUE/RUZYNE , CZ) observed 0830 UTC 23 January 2019
Temperature: -7.0°C (19°F)
Dewpoint: -9.0°C (16°F) [RH = 86%]
Pressure (altimeter): 29.56 inches Hg (1001.0 mb)
Winds: from the ESE (110 degrees) at 5 MPH (4 knots; 2.1 m/s)
Visibility: 4 miles ( 6 km)
Ceiling: 1100 feet AGL
Clouds: few clouds at 900 feet AGL
broken clouds at 1100 feet AGL
Weather: no significant weather observed at this time

METAR text: LKPR 230816Z 11004KT 6000 BKN011 M07/M09 Q1001 RMK REG QNH 0996
Conditions at: LKPR (PRAGUE/RUZYNE , CZ) observed 0816 UTC 23 January 2019
Temperature: -7.0°C (19°F)
Dewpoint: -9.0°C (16°F) [RH = 86%]
Pressure (altimeter): 29.56 inches Hg (1001.0 mb)
Winds: from the ESE (110 degrees) at 5 MPH (4 knots; 2.1 m/s)
Visibility: 4 miles ( 6 km)
Ceiling: 1100 feet AGL
Clouds: broken clouds at 1100 feet AGL
Weather: no significant weather observed at this time

METAR text: LKPR 230800Z 12005KT 6000 BKN010 M07/M09 Q1001 NOSIG
Conditions at: LKPR (PRAGUE/RUZYNE , CZ) observed 0800 UTC 23 January 2019
Temperature: -7.0°C (19°F)
Dewpoint: -9.0°C (16°F) [RH = 86%]
Pressure (altimeter): 29.56 inches Hg (1001.0 mb)
Winds: from the ESE (120 degrees) at 6 MPH (5 knots; 2.6 m/s)
Visibility: 4 miles ( 6 km)
Ceiling: 1000 feet AGL
Clouds: broken clouds at 1000 feet AGL
Weather: no significant weather observed at this time

METAR text: LKPR 230730Z 15006KT 6000 BKN011 M07/M09 Q1001 NOSIG
Conditions at: LKPR (PRAGUE/RUZYNE , CZ) observed 0730 UTC 23 January 2019
Temperature: -7.0°C (19°F)
Dewpoint: -9.0°C (16°F) [RH = 86%]
Pressure (altimeter): 29.56 inches Hg (1001.0 mb)
Winds: from the SSE (150 degrees) at 7 MPH (6 knots; 3.1 m/s)
Visibility: 4 miles ( 6 km)
Ceiling: 1100 feet AGL
Clouds: broken clouds at 1100 feet AGL
Weather: no significant weather observed at this time

METAR text: LKPR 230700Z 12008KT 5000 BR OVC010 M08/M09 Q1001 TEMPO 3800 BR
Conditions at: LKPR (PRAGUE/RUZYNE , CZ) observed 0700 UTC 23 January 2019
Temperature: -8.0°C (18°F)
Dewpoint: -9.0°C (16°F) [RH = 92%]
Pressure (altimeter): 29.56 inches Hg (1001.0 mb)
Winds: from the ESE (120 degrees) at 9 MPH (8 knots; 4.1 m/s)
Visibility: 3 miles ( 5 km)
Ceiling: 1000 feet AGL
Clouds: overcast cloud deck at 1000 feet AGL
Weather: BR  (mist)

METAR text: LKPR 230655Z 12008KT 5000 BR OVC010 M08/M09 Q1001 RMK REG QNH 0996
Conditions at: LKPR (PRAGUE/RUZYNE , CZ) observed 0655 UTC 23 January 2019
Temperature: -8.0°C (18°F)
Dewpoint: -9.0°C (16°F) [RH = 92%]
Pressure (altimeter): 29.56 inches Hg (1001.0 mb)
Winds: from the ESE (120 degrees) at 9 MPH (8 knots; 4.1 m/s)
Visibility: 3 miles ( 5 km)
Ceiling: 1000 feet AGL
Clouds: overcast cloud deck at 1000 feet AGL
Weather: BR  (mist)

METAR text: LKPR 230637Z 14006KT 5000 BR FEW007 OVC009 M08/M09 Q1001 RMK REG QNH 0996
Conditions at: LKPR (PRAGUE/RUZYNE , CZ) observed 0637 UTC 23 January 2019
Temperature: -8.0°C (18°F)
Dewpoint: -9.0°C (16°F) [RH = 92%]
Pressure (altimeter): 29.56 inches Hg (1001.0 mb)
Winds: from the SE (140 degrees) at 7 MPH (6 knots; 3.1 m/s)
Visibility: 3 miles ( 5 km)
Ceiling: 900 feet AGL
Clouds: few clouds at 700 feet AGL
overcast cloud deck at 900 feet AGL
Weather: BR  (mist)

METAR text: LKPR 230630Z 12008KT 7000 BKN007 OVC009 M08/M09 Q1001 NOSIG
Conditions at: LKPR (PRAGUE/RUZYNE , CZ) observed 0630 UTC 23 January 2019
Temperature: -8.0°C (18°F)
Dewpoint: -9.0°C (16°F) [RH = 92%]
Pressure (altimeter): 29.56 inches Hg (1001.0 mb)
Winds: from the ESE (120 degrees) at 9 MPH (8 knots; 4.1 m/s)
Visibility: 4 miles ( 7 km)
Ceiling: 700 feet AGL
Clouds: broken clouds at 700 feet AGL
overcast cloud deck at 900 feet AGL
Weather: no significant weather observed at this time

METAR text: LKPR 230600Z 13007KT 7000 OVC006 M08/M09 Q1001 NOSIG
Conditions at: LKPR (PRAGUE/RUZYNE , CZ) observed 0600 UTC 23 January 2019
Temperature: -8.0°C (18°F)
Dewpoint: -9.0°C (16°F) [RH = 92%]
Pressure (altimeter): 29.56 inches Hg (1001.0 mb)
Winds: from the SE (130 degrees) at 8 MPH (7 knots; 3.6 m/s)
Visibility: 4 miles ( 7 km)
Ceiling: 600 feet AGL
Clouds: overcast cloud deck at 600 feet AGL
Weather: no significant weather observed at this time

METAR text: LKPR 230530Z 12006KT 7000 FEW005 BKN006 OVC008 M08/M09 Q1001 NOSIG
Conditions at: LKPR (PRAGUE/RUZYNE , CZ) observed 0530 UTC 23 January 2019
Temperature: -8.0°C (18°F)
Dewpoint: -9.0°C (16°F) [RH = 92%]
Pressure (altimeter): 29.56 inches Hg (1001.0 mb)
Winds: from the ESE (120 degrees) at 7 MPH (6 knots; 3.1 m/s)
Visibility: 4 miles ( 7 km)
Ceiling: 600 feet AGL
Clouds: few clouds at 500 feet AGL
broken clouds at 600 feet AGL
overcast cloud deck at 800 feet AGL
Weather: no significant weather observed at this time

METAR text: LKPR 230500Z 14005KT 6000 BKN005 OVC007 M08/M09 Q1001 NOSIG
Conditions at: LKPR (PRAGUE/RUZYNE , CZ) observed 0500 UTC 23 January 2019
Temperature: -8.0°C (18°F)
Dewpoint: -9.0°C (16°F) [RH = 92%]
Pressure (altimeter): 29.56 inches Hg (1001.0 mb)
Winds: from the SE (140 degrees) at 6 MPH (5 knots; 2.6 m/s)
Visibility: 4 miles ( 6 km)
Ceiling: 500 feet AGL
Clouds: broken clouds at 500 feet AGL
overcast cloud deck at 700 feet AGL
Weather: no significant weather observed at this time

METAR text: LKPR 230452Z 13005KT 090V160 6000 2800NE VCSH SCT004 BKN005 OVC007 M08/M09 Q1002 RMK REG QNH 0996
Conditions at: LKPR (PRAGUE/RUZYNE , CZ) observed 0452 UTC 23 January 2019
Temperature: -8.0°C (18°F)
Dewpoint: -9.0°C (16°F) [RH = 92%]
Pressure (altimeter): 29.59 inches Hg (1002.0 mb)
Winds: from the SE (130 degrees) at 6 MPH (5 knots; 2.6 m/s)
Visibility: 4 miles ( 6 km)
Ceiling: 500 feet AGL
Clouds: scattered clouds at 400 feet AGL
broken clouds at 500 feet AGL
overcast cloud deck at 700 feet AGL
Weather: VCSH  (showers in vicinity)

METAR text: LKPR 230430Z 12006KT 6000 BKN004 OVC007 M08/M09 Q1002 TEMPO BKN006
Conditions at: LKPR (PRAGUE/RUZYNE , CZ) observed 0430 UTC 23 January 2019
Temperature: -8.0°C (18°F)
Dewpoint: -9.0°C (16°F) [RH = 92%]
Pressure (altimeter): 29.59 inches Hg (1002.0 mb)
Winds: from the ESE (120 degrees) at 7 MPH (6 knots; 3.1 m/s)
Visibility: 4 miles ( 6 km)
Ceiling: 400 feet AGL
Clouds: broken clouds at 400 feet AGL
overcast cloud deck at 700 feet AGL
Weather: no significant weather observed at this time

METAR text: LKPR 230400Z 14006KT 5000 BR SCT003 OVC004 M08/M09 Q1002 NOSIG
Conditions at: LKPR (PRAGUE/RUZYNE , CZ) observed 0400 UTC 23 January 2019
Temperature: -8.0°C (18°F)
Dewpoint: -9.0°C (16°F) [RH = 92%]
Pressure (altimeter): 29.59 inches Hg (1002.0 mb)
Winds: from the SE (140 degrees) at 7 MPH (6 knots; 3.1 m/s)
Visibility: 3 miles ( 5 km)
Ceiling: 400 feet AGL
Clouds: scattered clouds at 300 feet AGL
overcast cloud deck at 400 feet AGL
Weather: BR  (mist)

METAR text: LKPR 230330Z 16005KT 4800 BR SCT003 OVC004 M08/M09 Q1002 NOSIG
Conditions at: LKPR (PRAGUE/RUZYNE , CZ) observed 0330 UTC 23 January 2019
Temperature: -8.0°C (18°F)
Dewpoint: -9.0°C (16°F) [RH = 92%]
Pressure (altimeter): 29.59 inches Hg (1002.0 mb)
Winds: from the SSE (160 degrees) at 6 MPH (5 knots; 2.6 m/s)
Visibility: 2.98 miles (4.80 km)
Ceiling: 400 feet AGL
Clouds: scattered clouds at 300 feet AGL
overcast cloud deck at 400 feet AGL
Weather: BR  (mist)

METAR text: LKPR 230319Z 16005KT 4800 BR SCT003 OVC004 M08/M09 Q1002 RMK REG QNH 0996
Conditions at: LKPR (PRAGUE/RUZYNE , CZ) observed 0319 UTC 23 January 2019
Temperature: -8.0°C (18°F)
Dewpoint: -9.0°C (16°F) [RH = 92%]
Pressure (altimeter): 29.59 inches Hg (1002.0 mb)
Winds: from the SSE (160 degrees) at 6 MPH (5 knots; 2.6 m/s)
Visibility: 2.98 miles (4.80 km)
Ceiling: 400 feet AGL
Clouds: scattered clouds at 300 feet AGL
overcast cloud deck at 400 feet AGL
Weather: BR  (mist)

METAR text: LKPR 230300Z 15005KT 4800 BR BKN003 OVC004 M08/M09 Q1002 TEMPO 3000 BR
Conditions at: LKPR (PRAGUE/RUZYNE , CZ) observed 0300 UTC 23 January 2019
Temperature: -8.0°C (18°F)
Dewpoint: -9.0°C (16°F) [RH = 92%]
Pressure (altimeter): 29.59 inches Hg (1002.0 mb)
Winds: from the SSE (150 degrees) at 6 MPH (5 knots; 2.6 m/s)
Visibility: 2.98 miles (4.80 km)
Ceiling: 300 feet AGL
Clouds: broken clouds at 300 feet AGL
overcast cloud deck at 400 feet AGL
Weather: BR  (mist)

METAR text: LKPR 230230Z 14006KT 4800 BR FEW003 OVC004 M08/M09 Q1002 TEMPO 3000 BR
Conditions at: LKPR (PRAGUE/RUZYNE , CZ) observed 0230 UTC 23 January 2019
Temperature: -8.0°C (18°F)
Dewpoint: -9.0°C (16°F) [RH = 92%]
Pressure (altimeter): 29.59 inches Hg (1002.0 mb)
Winds: from the SE (140 degrees) at 7 MPH (6 knots; 3.1 m/s)
Visibility: 2.98 miles (4.80 km)
Ceiling: 400 feet AGL
Clouds: few clouds at 300 feet AGL
overcast cloud deck at 400 feet AGL
Weather: BR  (mist)

METAR text: LKPR 230200Z 16006KT 4800 BR SCT003 OVC004 M09/M10 Q1003 TEMPO 3000 BR
Conditions at: LKPR (PRAGUE/RUZYNE , CZ) observed 0200 UTC 23 January 2019
Temperature: -9.0°C (16°F)
Dewpoint: -10.0°C (14°F) [RH = 92%]
Pressure (altimeter): 29.62 inches Hg (1003.0 mb)
Winds: from the SSE (160 degrees) at 7 MPH (6 knots; 3.1 m/s)
Visibility: 2.98 miles (4.80 km)
Ceiling: 400 feet AGL
Clouds: scattered clouds at 300 feet AGL
overcast cloud deck at 400 feet AGL
Weather: BR  (mist)

METAR text: LKPR 230149Z 16006KT 5000 BR BKN004 BKN005 M09/M10 Q1003 RMK REG QNH 0997
Conditions at: LKPR (PRAGUE/RUZYNE , CZ) observed 0149 UTC 23 January 2019
Temperature: -9.0°C (16°F)
Dewpoint: -10.0°C (14°F) [RH = 92%]
Pressure (altimeter): 29.62 inches Hg (1003.0 mb)
Winds: from the SSE (160 degrees) at 7 MPH (6 knots; 3.1 m/s)
Visibility: 3 miles ( 5 km)
Ceiling: 400 feet AGL
Clouds: broken clouds at 400 feet AGL
broken clouds at 500 feet AGL
Weather: BR  (mist)

METAR text: LKPR 230142Z 15004KT 5000 BR FEW004 BKN005 BKN007 M09/M10 Q1003 RMK REG QNH 0997
Conditions at: LKPR (PRAGUE/RUZYNE , CZ) observed 0142 UTC 23 January 2019
Temperature: -9.0°C (16°F)
Dewpoint: -10.0°C (14°F) [RH = 92%]
Pressure (altimeter): 29.62 inches Hg (1003.0 mb)
Winds: from the SSE (150 degrees) at 5 MPH (4 knots; 2.1 m/s)
Visibility: 3 miles ( 5 km)
Ceiling: 500 feet AGL
Clouds: few clouds at 400 feet AGL
broken clouds at 500 feet AGL
broken clouds at 700 feet AGL
Weather: BR  (mist)

METAR text: LKPR 230130Z 13004KT 6000 FEW005 BKN006 M09/M11 Q1003 NOSIG
Conditions at: LKPR (PRAGUE/RUZYNE , CZ) observed 0130 UTC 23 January 2019
Temperature: -9.0°C (16°F)
Dewpoint: -11.0°C (12°F) [RH = 85%]
Pressure (altimeter): 29.62 inches Hg (1003.0 mb)
Winds: from the SE (130 degrees) at 5 MPH (4 knots; 2.1 m/s)
Visibility: 4 miles ( 6 km)
Ceiling: 600 feet AGL
Clouds: few clouds at 500 feet AGL
broken clouds at 600 feet AGL
Weather: no significant weather observed at this time

METAR text: LKPR 230121Z 12004KT 6000 BKN006 M10/M12 Q1003 RMK REG QNH 0997
Conditions at: LKPR (PRAGUE/RUZYNE , CZ) observed 0121 UTC 23 January 2019
Temperature: -10.0°C (14°F)
Dewpoint: -12.0°C (10°F) [RH = 85%]
Pressure (altimeter): 29.62 inches Hg (1003.0 mb)
Winds: from the ESE (120 degrees) at 5 MPH (4 knots; 2.1 m/s)
Visibility: 4 miles ( 6 km)
Ceiling: 600 feet AGL
Clouds: broken clouds at 600 feet AGL
Weather: no significant weather observed at this time

METAR text: LKPR 230100Z VRB02KT 6000 NSC M10/M12 Q1003 NOSIG
Conditions at: LKPR (PRAGUE/RUZYNE , CZ) observed 0100 UTC 23 January 2019
Temperature: -10.0°C (14°F)
Dewpoint: -12.0°C (10°F) [RH = 85%]
Pressure (altimeter): 29.62 inches Hg (1003.0 mb)
Winds: variable direction winds at 2 MPH (2 knots; 1.0 m/s)
Visibility: 4 miles ( 6 km)
Ceiling: at least 12,000 feet AGL
Clouds: sky clear below 12,000 feet AGL
Weather: no significant weather observed at this time

METAR text: LKPR 230030Z 05003KT 6000 NSC M11/M13 Q1003 NOSIG
Conditions at: LKPR (PRAGUE/RUZYNE , CZ) observed 0030 UTC 23 January 2019
Temperature: -11.0°C (12°F)
Dewpoint: -13.0°C ( 9°F) [RH = 85%]
Pressure (altimeter): 29.62 inches Hg (1003.0 mb)
Winds: from the NE (50 degrees) at 3 MPH (3 knots; 1.5 m/s)
Visibility: 4 miles ( 6 km)
Ceiling: at least 12,000 feet AGL
Clouds: sky clear below 12,000 feet AGL
Weather: no significant weather observed at this time

METAR text: LKPR 230000Z 08002KT 6000 NSC M10/M11 Q1004 NOSIG
Conditions at: LKPR (PRAGUE/RUZYNE , CZ) observed 0000 UTC 23 January 2019
Temperature: -10.0°C (14°F)
Dewpoint: -11.0°C (12°F) [RH = 92%]
Pressure (altimeter): 29.65 inches Hg (1004.0 mb)
Winds: from the E (80 degrees) at 2 MPH (2 knots; 1.0 m/s)
Visibility: 4 miles ( 6 km)
Ceiling: at least 12,000 feet AGL
Clouds: sky clear below 12,000 feet AGL
Weather: no significant weather observed at this time

METAR text: LKPR 222330Z 10002KT 7000 NSC M09/M11 Q1004 NOSIG
Conditions at: LKPR (PRAGUE/RUZYNE , CZ) observed 2330 UTC 22 January 2019
Temperature: -9.0°C (16°F)
Dewpoint: -11.0°C (12°F) [RH = 85%]
Pressure (altimeter): 29.65 inches Hg (1004.0 mb)
Winds: from the E (100 degrees) at 2 MPH (2 knots; 1.0 m/s)
Visibility: 4 miles ( 7 km)
Ceiling: at least 12,000 feet AGL
Clouds: sky clear below 12,000 feet AGL
Weather: no significant weather observed at this time

METAR text: LKPR 222300Z VRB02KT 6000 NSC M08/M10 Q1004 NOSIG
Conditions at: LKPR (PRAGUE/RUZYNE , CZ) observed 2300 UTC 22 January 2019
Temperature: -8.0°C (18°F)
Dewpoint: -10.0°C (14°F) [RH = 85%]
Pressure (altimeter): 29.65 inches Hg (1004.0 mb)
Winds: variable direction winds at 2 MPH (2 knots; 1.0 m/s)
Visibility: 4 miles ( 6 km)
Ceiling: at least 12,000 feet AGL
Clouds: sky clear below 12,000 feet AGL
Weather: no significant weather observed at this time

METAR text: LKPR 222230Z 06003KT 7000 NSC M08/M10 Q1005 NOSIG
Conditions at: LKPR (PRAGUE/RUZYNE , CZ) observed 2230 UTC 22 January 2019
Temperature: -8.0°C (18°F)
Dewpoint: -10.0°C (14°F) [RH = 85%]
Pressure (altimeter): 29.68 inches Hg (1005.0 mb)
Winds: from the ENE (60 degrees) at 3 MPH (3 knots; 1.5 m/s)
Visibility: 4 miles ( 7 km)
Ceiling: at least 12,000 feet AGL
Clouds: sky clear below 12,000 feet AGL
Weather: no significant weather observed at this time

METAR text: LKPR 222200Z 07003KT 7000 NSC M08/M09 Q1005 NOSIG
Conditions at: LKPR (PRAGUE/RUZYNE , CZ) observed 2200 UTC 22 January 2019
Temperature: -8.0°C (18°F)
Dewpoint: -9.0°C (16°F) [RH = 92%]
Pressure (altimeter): 29.68 inches Hg (1005.0 mb)
Winds: from the ENE (70 degrees) at 3 MPH (3 knots; 1.5 m/s)
Visibility: 4 miles ( 7 km)
Ceiling: at least 12,000 feet AGL
Clouds: sky clear below 12,000 feet AGL
Weather: no significant weather observed at this time

METAR text: LKPR 222130Z 09006KT 7000 NSC M08/M09 Q1005 NOSIG
Conditions at: LKPR (PRAGUE/RUZYNE , CZ) observed 2130 UTC 22 January 2019
Temperature: -8.0°C (18°F)
Dewpoint: -9.0°C (16°F) [RH = 92%]
Pressure (altimeter): 29.68 inches Hg (1005.0 mb)
Winds: from the E (90 degrees) at 7 MPH (6 knots; 3.1 m/s)
Visibility: 4 miles ( 7 km)
Ceiling: at least 12,000 feet AGL
Clouds: sky clear below 12,000 feet AGL
Weather: no significant weather observed at this time

METAR text: LKPR 222100Z 10005KT 7000 NSC M08/M09 Q1006 NOSIG
Conditions at: LKPR (PRAGUE/RUZYNE , CZ) observed 2100 UTC 22 January 2019
Temperature: -8.0°C (18°F)
Dewpoint: -9.0°C (16°F) [RH = 92%]
Pressure (altimeter): 29.70 inches Hg (1006.0 mb)
Winds: from the E (100 degrees) at 6 MPH (5 knots; 2.6 m/s)
Visibility: 4 miles ( 7 km)
Ceiling: at least 12,000 feet AGL
Clouds: sky clear below 12,000 feet AGL
Weather: no significant weather observed at this time

METAR text: LKPR 222030Z 10003KT 6000 NSC M07/M08 Q1006 NOSIG
Conditions at: LKPR (PRAGUE/RUZYNE , CZ) observed 2030 UTC 22 January 2019
Temperature: -7.0°C (19°F)
Dewpoint: -8.0°C (18°F) [RH = 93%]
Pressure (altimeter): 29.70 inches Hg (1006.0 mb)
Winds: from the E (100 degrees) at 3 MPH (3 knots; 1.5 m/s)
Visibility: 4 miles ( 6 km)
Ceiling: at least 12,000 feet AGL
Clouds: sky clear below 12,000 feet AGL
Weather: no significant weather observed at this time

METAR text: LKPR 222000Z 10003KT 060V130 5000 BR NSC M07/M08 Q1006 NOSIG
Conditions at: LKPR (PRAGUE/RUZYNE , CZ) observed 2000 UTC 22 January 2019
Temperature: -7.0°C (19°F)
Dewpoint: -8.0°C (18°F) [RH = 93%]
Pressure (altimeter): 29.70 inches Hg (1006.0 mb)
Winds: from the E (100 degrees) at 3 MPH (3 knots; 1.5 m/s)
Visibility: 3 miles ( 5 km)
Ceiling: at least 12,000 feet AGL
Clouds: sky clear below 12,000 feet AGL
Weather: BR  (mist)

METAR text: LKPR 221930Z 10005KT 5000 BR NSC M08/M09 Q1006 NOSIG
Conditions at: LKPR (PRAGUE/RUZYNE , CZ) observed 1930 UTC 22 January 2019
Temperature: -8.0°C (18°F)
Dewpoint: -9.0°C (16°F) [RH = 92%]
Pressure (altimeter): 29.70 inches Hg (1006.0 mb)
Winds: from the E (100 degrees) at 6 MPH (5 knots; 2.6 m/s)
Visibility: 3 miles ( 5 km)
Ceiling: at least 12,000 feet AGL
Clouds: sky clear below 12,000 feet AGL
Weather: BR  (mist)

METAR text: LKPR 221900Z 11003KT 5000 BR NSC M07/M08 Q1007 NOSIG
Conditions at: LKPR (PRAGUE/RUZYNE , CZ) observed 1900 UTC 22 January 2019
Temperature: -7.0°C (19°F)
Dewpoint: -8.0°C (18°F) [RH = 93%]
Pressure (altimeter): 29.73 inches Hg (1007.0 mb)
Winds: from the ESE (110 degrees) at 3 MPH (3 knots; 1.5 m/s)
Visibility: 3 miles ( 5 km)
Ceiling: at least 12,000 feet AGL
Clouds: sky clear below 12,000 feet AGL
Weather: BR  (mist)

METAR text: LKPR 221830Z 09004KT 5000 BR NSC M07/M08 Q1007 NOSIG
Conditions at: LKPR (PRAGUE/RUZYNE , CZ) observed 1830 UTC 22 January 2019
Temperature: -7.0°C (19°F)
Dewpoint: -8.0°C (18°F) [RH = 93%]
Pressure (altimeter): 29.73 inches Hg (1007.0 mb)
Winds: from the E (90 degrees) at 5 MPH (4 knots; 2.1 m/s)
Visibility: 3 miles ( 5 km)
Ceiling: at least 12,000 feet AGL
Clouds: sky clear below 12,000 feet AGL
Weather: BR  (mist)

METAR text: LKPR 221800Z 09005KT 5000 BR NSC M07/M08 Q1007 NOSIG
Conditions at: LKPR (PRAGUE/RUZYNE , CZ) observed 1800 UTC 22 January 2019
Temperature: -7.0°C (19°F)
Dewpoint: -8.0°C (18°F) [RH = 93%]
Pressure (altimeter): 29.73 inches Hg (1007.0 mb)
Winds: from the E (90 degrees) at 6 MPH (5 knots; 2.6 m/s)
Visibility: 3 miles ( 5 km)
Ceiling: at least 12,000 feet AGL
Clouds: sky clear below 12,000 feet AGL
Weather: BR  (mist)

METAR text: LKPR 221730Z 09004KT 5000 BR NSC M07/M08 Q1008 NOSIG
Conditions at: LKPR (PRAGUE/RUZYNE , CZ) observed 1730 UTC 22 January 2019
Temperature: -7.0°C (19°F)
Dewpoint: -8.0°C (18°F) [RH = 93%]
Pressure (altimeter): 29.76 inches Hg (1008.0 mb)
Winds: from the E (90 degrees) at 5 MPH (4 knots; 2.1 m/s)
Visibility: 3 miles ( 5 km)
Ceiling: at least 12,000 feet AGL
Clouds: sky clear below 12,000 feet AGL
Weather: BR  (mist)

METAR text: LKPR 221700Z 06004KT 5000 BR NSC M07/M08 Q1008 NOSIG
Conditions at: LKPR (PRAGUE/RUZYNE , CZ) observed 1700 UTC 22 January 2019
Temperature: -7.0°C (19°F)
Dewpoint: -8.0°C (18°F) [RH = 93%]
Pressure (altimeter): 29.76 inches Hg (1008.0 mb)
Winds: from the ENE (60 degrees) at 5 MPH (4 knots; 2.1 m/s)
Visibility: 3 miles ( 5 km)
Ceiling: at least 12,000 feet AGL
Clouds: sky clear below 12,000 feet AGL
Weather: BR  (mist)

Forecast for: LKPR (PRAGUE/RUZYNE , CZ)
Text: TAF LKPR 232300Z 2400/2506 09010KT 8000 BKN023
Forecast period: 0000 to 0600 UTC 24 January 2019
Forecast type: FROM: standard forecast or significant change
Winds: from the E (90 degrees) at 12 MPH (10 knots; 5.1 m/s)
Visibility: 5 miles (8 km)
Ceiling: 2300 feet AGL
Clouds: broken clouds at 2300 feet AGL
Weather: no significant weather forecast for this period
Text: TEMPO 2400/2406 4000 -SN BR BKN013
Forecast period: 0000 to 0600 UTC 24 January 2019
Forecast type: TEMPORARY: The following changes expected for less than half the time period
Visibility: 2.49 miles (4.01 km)
Ceiling: 1300 feet AGL
Clouds: broken clouds at 1300 feet AGL
Weather: -SN BR  (light snow, mist)
Text: BECMG 2406/2408 06005KT
Forecast period: 0600 to 1600 UTC 24 January 2019
Forecast type: BECOMING: Conditions expected to become as follows by 0800 UTC 24 January 2019
Winds: from the ENE (60 degrees) at 6 MPH (5 knots; 2.6 m/s)
Visibility: 5 miles (8 km)
Ceiling: 2300 feet AGL
Clouds: broken clouds at 2300 feet AGL
Weather: no significant weather forecast for this period
Text: BECMG 2416/2418 VRB02KT
Forecast period: 1600 UTC 24 January 2019 to 0000 UTC 25 January 2019
Forecast type: BECOMING: Conditions expected to become as follows by 1800 UTC 24 January 2019
Winds: variable direction winds at 2 MPH (2 knots; 1.0 m/s)
Visibility: 5 miles (8 km)
Ceiling: 2300 feet AGL
Clouds: broken clouds at 2300 feet AGL
Weather: no significant weather forecast for this period
Text: BECMG 2500/2502 30008KT
Forecast period: 0000 to 0600 UTC 25 January 2019
Forecast type: BECOMING: Conditions expected to become as follows by 0200 UTC 25 January 2019
Winds: from the WNW (300 degrees) at 9 MPH (8 knots; 4.1 m/s)
Visibility: 5 miles (8 km)
Ceiling: 2300 feet AGL
Clouds: broken clouds at 2300 feet AGL
Weather: no significant weather forecast for this period